Time;durP1;ratioP1;P1;durP2;ratioP2;P2;SDS_P1;SDS_P2;PMS_P1;PMS_P2;Temp;Humidity;BMP_temperature;BMP_pressure;BME280_temperature;BME280_humidity;BME280_pressure;Samples;Min_cycle;Max_cycle;Signal;HPM_P1;HPM_P2
2023/01/27 00:00:55;;;;;;;22.50;16.90;;;1.40;99.90;;;;;;5053572;28;20966;-71
2023/01/27 00:03:22;;;;;;;22.50;16.87;;;1.40;99.90;;;;;;5052849;28;20296;-72
2023/01/27 00:05:47;;;;;;;23.73;18.00;;;1.60;99.90;;;;;;5053540;28;20174;-72
2023/01/27 00:08:16;;;;;;;26.97;20.07;;;1.50;99.90;;;;;;5033805;28;20819;-72
2023/01/27 00:10:42;;;;;;;22.23;16.53;;;1.40;99.90;;;;;;5053168;28;20170;-72
2023/01/27 00:13:26;;;;;;;22.70;18.13;;;1.30;99.90;;;;;;5053088;28;20500;-69
2023/01/27 00:15:52;;;;;;;25.80;19.50;;;1.40;99.90;;;;;;5035239;28;20186;-72
2023/01/27 00:18:17;;;;;;;19.93;16.40;;;1.60;99.90;;;;;;5053153;28;20420;-71
2023/01/27 00:26:15;;;;;;;22.27;16.57;;;1.30;99.90;;;;;;5053144;28;20433;-71
2023/01/27 00:28:42;;;;;;;22.40;16.90;;;1.20;99.90;;;;;;5053003;28;20399;-71
2023/01/27 00:33:55;;;;;;;20.20;16.00;;;1.40;99.90;;;;;;5054557;28;20403;-71
2023/01/27 00:36:21;;;;;;;21.87;16.10;;;1.20;99.90;;;;;;5056630;28;20408;-71
2023/01/27 00:38:47;;;;;;;18.90;14.43;;;1.10;99.90;;;;;;5038288;28;20478;-71
2023/01/27 00:41:18;;;;;;;21.10;17.27;;;1.10;99.90;;;;;;5056378;28;20978;-72
2023/01/27 00:43:49;;;;;;;21.43;16.33;;;1.10;99.90;;;;;;5057049;28;20185;-71
2023/01/27 00:46:15;;;;;;;23.80;16.17;;;1.00;99.90;;;;;;5056709;28;20377;-71
2023/01/27 00:48:41;;;;;;;22.90;16.67;;;1.00;99.90;;;;;;5039103;28;20405;-71
2023/01/27 00:51:06;;;;;;;22.90;16.43;;;1.00;99.90;;;;;;5036421;28;20896;-71
2023/01/27 00:53:32;;;;;;;26.50;19.10;;;1.00;99.90;;;;;;5036028;28;20174;-71
2023/01/27 00:55:58;;;;;;;19.57;15.20;;;1.20;99.90;;;;;;5036437;28;20213;-71
2023/01/27 00:58:28;;;;;;;25.10;18.27;;;0.90;99.90;;;;;;5036649;28;20179;-71
2023/01/27 01:00:55;;;;;;;30.63;22.37;;;0.80;99.90;;;;;;5036496;28;20175;-70
2023/01/27 01:03:21;;;;;;;23.20;16.80;;;1.00;99.90;;;;;;5036601;28;20408;-70
2023/01/27 01:05:47;;;;;;;27.70;19.37;;;1.10;99.90;;;;;;5036201;28;20405;-71
2023/01/27 01:08:13;;;;;;;25.80;19.27;;;1.10;99.90;;;;;;5050355;28;20447;-70
2023/01/27 01:10:38;;;;;;;27.77;18.07;;;1.10;99.90;;;;;;5055979;28;20413;-70
2023/01/27 01:13:10;;;;;;;28.93;19.40;;;1.10;99.90;;;;;;5038274;28;20580;-71
2023/01/27 01:15:37;;;;;;;23.03;17.70;;;1.30;99.90;;;;;;5055895;28;20664;-70
2023/01/27 01:18:04;;;;;;;22.60;18.07;;;1.10;99.90;;;;;;5055905;28;20450;-70
2023/01/27 01:20:30;;;;;;;27.80;19.33;;;1.00;99.90;;;;;;5056041;28;20401;-71
2023/01/27 01:22:56;;;;;;;21.50;17.70;;;1.20;99.90;;;;;;5055318;28;20449;-71
2023/01/27 01:25:22;;;;;;;25.20;18.87;;;1.30;99.90;;;;;;5055834;28;20498;-71
2023/01/27 01:27:48;;;;;;;25.50;19.27;;;1.40;99.90;;;;;;5055697;28;20159;-70
2023/01/27 01:30:13;;;;;;;23.37;18.30;;;1.00;99.90;;;;;;5055652;28;20407;-70
2023/01/27 01:32:39;;;;;;;29.37;18.93;;;1.10;99.90;;;;;;5055624;28;20191;-71
2023/01/27 01:35:05;;;;;;;24.70;17.73;;;1.20;99.90;;;;;;5055558;28;20201;-71
2023/01/27 01:37:30;;;;;;;30.90;20.17;;;1.20;99.90;;;;;;5037120;28;20181;-71
2023/01/27 01:39:56;;;;;;;25.33;19.57;;;1.00;99.90;;;;;;5056088;28;20500;-70
2023/01/27 01:42:21;;;;;;;24.37;18.00;;;1.10;99.90;;;;;;5055322;28;20626;-71
2023/01/27 01:45:10;;;;;;;28.40;18.90;;;1.00;99.90;;;;;;5054570;28;20595;-71
2023/01/27 01:47:36;;;;;;;25.13;17.80;;;1.10;99.90;;;;;;5054981;28;20179;-70
2023/01/27 01:50:02;;;;;;;25.20;19.93;;;1.20;99.90;;;;;;5054264;28;20424;-71
2023/01/27 01:52:28;;;;;;;19.07;16.80;;;1.40;99.90;;;;;;5054928;28;20265;-70
2023/01/27 01:54:55;;;;;;;22.77;17.93;;;1.40;99.90;;;;;;5055514;28;20194;-71
2023/01/27 01:57:27;;;;;;;22.50;16.30;;;1.10;99.90;;;;;;5055255;28;20175;-71
2023/01/27 02:00:00;;;;;;;26.17;16.50;;;0.90;99.90;;;;;;5015442;28;20992;-71
2023/01/27 02:02:26;;;;;;;24.57;16.40;;;0.80;99.90;;;;;;5015143;28;20430;-71
2023/01/27 02:05:19;;;;;;;21.93;16.47;;;1.20;99.90;;;;;;5016175;28;20409;-70
2023/01/27 02:07:53;;;;;;;23.33;17.10;;;1.30;99.90;;;;;;5005005;28;20429;-70
2023/01/27 02:10:19;;;;;;;25.57;18.70;;;1.60;99.90;;;;;;5035617;28;20457;-70
2023/01/27 02:12:44;;;;;;;22.87;17.37;;;1.50;99.90;;;;;;5034991;28;20952;-70
2023/01/27 02:15:11;;;;;;;24.80;16.80;;;1.60;99.90;;;;;;5034932;28;20198;-71
2023/01/27 02:17:37;;;;;;;27.50;17.97;;;1.50;99.90;;;;;;5035020;28;20163;-70
2023/01/27 02:20:26;;;;;;;25.20;18.27;;;1.40;99.90;;;;;;5034859;28;20928;-71
2023/01/27 02:23:03;;;;;;;21.33;16.37;;;1.60;99.90;;;;;;5034715;28;20422;-71
2023/01/27 02:25:56;;;;;;;25.00;17.43;;;1.40;99.90;;;;;;5035274;28;20417;-71
2023/01/27 02:28:25;;;;;;;19.60;14.70;;;1.50;99.90;;;;;;5034974;28;20390;-71
2023/01/27 02:30:50;;;;;;;22.53;15.97;;;1.70;99.90;;;;;;5034575;28;20750;-71
2023/01/27 02:33:16;;;;;;;15.90;12.67;;;1.80;99.90;;;;;;5034396;28;20464;-72
2023/01/27 02:35:50;;;;;;;16.83;13.50;;;1.80;99.90;;;;;;5034502;28;20731;-71
2023/01/27 02:38:17;;;;;;;17.83;12.67;;;1.60;99.90;;;;;;5044316;28;20166;-71
2023/01/27 02:40:45;;;;;;;19.10;12.67;;;1.40;99.90;;;;;;5034188;28;20411;-71
2023/01/27 02:43:11;;;;;;;17.67;12.70;;;1.60;99.90;;;;;;5034771;28;20406;-71
2023/01/27 02:45:36;;;;;;;20.60;14.30;;;1.50;99.90;;;;;;5034019;28;21022;-70
2023/01/27 02:48:02;;;;;;;19.47;14.97;;;1.50;99.90;;;;;;5034086;28;20225;-71
2023/01/27 02:50:28;;;;;;;16.97;12.97;;;1.60;99.90;;;;;;5034571;28;20177;-71
2023/01/27 02:52:53;;;;;;;17.53;13.47;;;1.70;99.90;;;;;;5033944;28;20201;-71
2023/01/27 02:55:19;;;;;;;18.80;12.10;;;1.60;99.90;;;;;;5034214;28;20195;-69
2023/01/27 02:57:44;;;;;;;14.53;11.30;;;1.50;99.90;;;;;;5034089;28;20167;-70
2023/01/27 03:00:12;;;;;;;17.60;13.17;;;1.50;99.90;;;;;;5034436;28;20254;-71
2023/01/27 03:02:38;;;;;;;14.00;11.10;;;1.70;99.90;;;;;;5033701;28;20700;-71
2023/01/27 03:05:04;;;;;;;17.27;12.00;;;1.50;99.90;;;;;;5016353;28;20421;-70
2023/01/27 03:07:29;;;;;;;14.87;11.70;;;1.60;99.90;;;;;;5037540;28;20211;-71
2023/01/27 03:09:55;;;;;;;17.57;12.63;;;1.70;99.90;;;;;;5053621;28;20405;-70
2023/01/27 03:12:21;;;;;;;16.87;11.90;;;1.80;99.90;;;;;;5053644;28;20195;-71
2023/01/27 03:20:21;;;;;;;14.93;12.13;;;1.30;99.90;;;;;;5054046;28;20458;-70
2023/01/27 03:22:47;;;;;;;15.87;12.33;;;1.50;99.90;;;;;;5053067;28;20975;-71
2023/01/27 03:25:13;;;;;;;16.37;13.57;;;1.70;99.90;;;;;;5053622;28;20810;-71
2023/01/27 03:27:38;;;;;;;20.57;15.03;;;1.60;99.90;;;;;;5053765;28;20412;-71
2023/01/27 03:30:05;;;;;;;16.83;13.13;;;1.60;99.90;;;;;;5053450;28;20250;-70
2023/01/27 03:32:31;;;;;;;22.80;14.13;;;1.60;99.90;;;;;;5053918;28;20198;-71
2023/01/27 03:34:57;;;;;;;18.97;13.07;;;1.60;99.90;;;;;;5035946;28;20926;-71
2023/01/27 03:48:21;;;;;;;29.17;19.77;;;1.60;99.90;;;;;;5053731;28;20392;-71
2023/01/27 03:50:51;;;;;;;24.90;16.50;;;1.70;99.90;;;;;;5052794;28;20492;-71
2023/01/27 03:53:18;;;;;;;17.90;13.30;;;1.60;99.90;;;;;;5051997;28;20236;-70
2023/01/27 03:55:43;;;;;;;20.20;14.63;;;1.30;99.90;;;;;;5053584;28;20448;-70
2023/01/27 03:58:29;;;;;;;19.90;15.10;;;1.30;99.90;;;;;;5035137;28;20420;-70
2023/01/27 04:00:58;;;;;;;23.57;16.93;;;1.40;99.90;;;;;;5053290;28;20170;-70
2023/01/27 04:08:59;;;;;;;18.93;14.70;;;1.80;99.90;;;;;;5050569;28;20787;-71
2023/01/27 04:14:11;;;;;;;29.10;16.67;;;1.40;99.90;;;;;;5053413;28;20177;-70
2023/01/27 04:16:37;;;;;;;18.17;13.53;;;1.40;99.90;;;;;;5053103;28;20408;-71
2023/01/27 04:19:04;;;;;;;21.60;14.43;;;1.20;99.90;;;;;;5052759;28;20472;-71
2023/01/27 04:21:30;;;;;;;18.67;14.40;;;1.30;99.90;;;;;;5052954;28;20614;-71
2023/01/27 04:23:56;;;;;;;16.87;13.30;;;1.40;99.90;;;;;;5052217;28;20425;-70
2023/01/27 04:26:22;;;;;;;16.17;13.23;;;1.50;99.90;;;;;;5052003;28;20171;-70
2023/01/27 04:28:48;;;;;;;18.27;12.60;;;1.40;99.90;;;;;;5034894;28;20166;-70
2023/01/27 04:31:14;;;;;;;22.97;17.10;;;1.50;99.90;;;;;;5052667;28;20183;-70
2023/01/27 04:33:41;;;;;;;17.67;13.57;;;1.60;99.90;;;;;;5021194;28;20938;-69
2023/01/27 04:36:07;;;;;;;21.73;14.53;;;1.60;99.90;;;;;;5032959;28;20449;-71
2023/01/27 04:38:32;;;;;;;15.10;12.07;;;1.60;99.90;;;;;;5042155;28;20424;-71
2023/01/27 04:41:01;;;;;;;18.67;14.60;;;1.40;99.90;;;;;;5052871;28;20444;-69
2023/01/27 04:43:26;;;;;;;17.23;12.83;;;1.40;99.90;;;;;;5036598;28;20167;-70
2023/01/27 04:45:52;;;;;;;16.73;12.83;;;1.30;99.90;;;;;;5032693;28;20398;-70
2023/01/27 04:48:18;;;;;;;18.10;13.90;;;1.00;99.90;;;;;;5014964;28;20198;-70
2023/01/27 04:50:43;;;;;;;19.13;14.57;;;1.00;99.90;;;;;;5032543;28;20673;-71
2023/01/27 04:53:09;;;;;;;21.03;16.70;;;1.20;99.90;;;;;;5032403;28;20614;-71
2023/01/27 04:55:34;;;;;;;21.13;15.57;;;1.40;99.90;;;;;;5032533;28;20200;-71
2023/01/27 04:58:00;;;;;;;20.20;16.10;;;1.50;99.90;;;;;;5032231;28;20178;-71
2023/01/27 05:00:26;;;;;;;17.33;14.43;;;1.10;99.90;;;;;;5033039;28;20205;-71
2023/01/27 05:02:52;;;;;;;20.97;16.13;;;1.10;99.90;;;;;;5032341;28;20241;-71
2023/01/27 05:05:17;;;;;;;21.70;17.77;;;1.10;99.90;;;;;;5032757;28;20412;-71
2023/01/27 05:07:43;;;;;;;22.30;17.77;;;1.20;99.90;;;;;;5034750;28;20213;-71
2023/01/27 05:10:09;;;;;;;23.07;17.57;;;1.30;99.90;;;;;;5051738;28;20169;-71
2023/01/27 05:12:35;;;;;;;28.20;21.30;;;1.20;99.90;;;;;;5052290;28;20238;-71
2023/01/27 05:15:00;;;;;;;22.40;18.33;;;1.20;99.90;;;;;;5052157;28;20452;-70
2023/01/27 05:17:30;;;;;;;25.20;19.07;;;1.20;99.90;;;;;;5052324;28;20250;-71
2023/01/27 05:19:56;;;;;;;26.10;20.10;;;1.00;99.90;;;;;;5053828;28;20200;-71
2023/01/27 05:22:21;;;;;;;26.80;19.90;;;1.00;99.90;;;;;;5056088;28;20444;-71
2023/01/27 05:24:47;;;;;;;28.23;20.50;;;1.10;99.90;;;;;;5055552;28;20171;-71
2023/01/27 05:27:12;;;;;;;25.57;21.87;;;1.40;99.90;;;;;;5055946;28;20182;-72
2023/01/27 05:29:38;;;;;;;24.90;19.77;;;1.60;99.90;;;;;;5056020;28;20643;-71
2023/01/27 05:32:04;;;;;;;28.47;21.40;;;1.80;99.90;;;;;;5055693;28;20234;-71
2023/01/27 05:34:29;;;;;;;25.93;21.13;;;1.80;99.90;;;;;;5055841;28;20186;-70
2023/01/27 05:36:55;;;;;;;40.27;26.50;;;1.90;99.90;;;;;;5055616;28;20549;-71
2023/01/27 05:39:20;;;;;;;26.00;21.07;;;1.90;99.90;;;;;;5055059;28;20665;-71
2023/01/27 05:41:46;;;;;;;30.77;24.20;;;2.00;99.90;;;;;;5037507;28;20206;-71
2023/01/27 05:44:12;;;;;;;44.70;31.83;;;2.00;99.90;;;;;;5055578;28;20167;-71
2023/01/27 05:46:39;;;;;;;24.70;18.63;;;1.70;99.90;;;;;;5055490;28;20706;-72
2023/01/27 05:49:05;;;;;;;67.70;42.70;;;1.60;99.90;;;;;;5055902;28;20401;-71
2023/01/27 05:51:33;;;;;;;28.07;22.00;;;1.40;99.90;;;;;;5038250;28;20434;-71
2023/01/27 05:53:59;;;;;;;25.30;20.37;;;1.10;99.90;;;;;;5025622;28;20179;-71
2023/01/27 05:56:25;;;;;;;25.10;18.80;;;1.20;99.90;;;;;;5025966;28;20422;-71
2023/01/27 05:58:55;;;;;;;29.43;23.07;;;1.10;99.90;;;;;;5026800;28;20179;-71
2023/01/27 06:01:24;;;;;;;25.77;20.30;;;1.20;99.90;;;;;;5035339;28;20426;-71
2023/01/27 06:03:50;;;;;;;24.87;18.10;;;1.30;99.90;;;;;;5035248;28;20414;-71
2023/01/27 06:06:20;;;;;;;24.30;18.13;;;1.00;99.90;;;;;;5035129;28;20459;-71
2023/01/27 06:08:47;;;;;;;27.67;21.87;;;1.20;99.90;;;;;;5045961;28;20420;-71
2023/01/27 06:11:13;;;;;;;26.43;19.67;;;1.50;99.90;;;;;;5053941;28;20445;-70
2023/01/27 06:13:39;;;;;;;29.23;23.17;;;1.20;99.90;;;;;;5037104;28;20448;-71
2023/01/27 06:16:10;;;;;;;24.00;20.00;;;1.30;99.90;;;;;;5055050;28;20480;-71
2023/01/27 06:18:37;;;;;;;22.53;18.80;;;1.50;99.90;;;;;;5054716;28;20185;-71
2023/01/27 06:21:04;;;;;;;25.10;19.40;;;1.30;99.90;;;;;;5054573;28;20421;-71
2023/01/27 06:23:30;;;;;;;24.30;20.23;;;1.20;99.90;;;;;;5054697;28;20423;-71
2023/01/27 06:26:00;;;;;;;29.30;21.70;;;1.40;99.90;;;;;;5054691;28;20401;-72
2023/01/27 06:28:26;;;;;;;26.60;19.23;;;1.70;99.90;;;;;;5054589;28;20386;-72
2023/01/27 06:30:52;;;;;;;26.57;20.50;;;1.80;99.90;;;;;;5036056;28;20761;-72
2023/01/27 06:33:17;;;;;;;28.00;21.13;;;1.60;99.90;;;;;;5037520;28;20664;-72
2023/01/27 06:35:43;;;;;;;20.67;16.60;;;1.50;99.90;;;;;;5034875;28;20195;-72
2023/01/27 06:38:13;;;;;;;28.20;19.50;;;1.70;99.90;;;;;;5034759;28;20507;-72
2023/01/27 06:40:38;;;;;;;25.40;19.30;;;1.60;99.90;;;;;;5042003;28;20163;-72
2023/01/27 06:43:08;;;;;;;25.43;17.93;;;1.70;99.90;;;;;;5034735;28;20468;-72
2023/01/27 06:45:34;;;;;;;24.50;18.30;;;1.70;99.90;;;;;;5034397;28;20180;-71
2023/01/27 06:48:00;;;;;;;26.43;19.00;;;1.60;99.90;;;;;;5034630;28;20394;-70
2023/01/27 06:50:28;;;;;;;23.87;17.70;;;1.60;99.90;;;;;;5034432;28;20178;-71
2023/01/27 06:52:59;;;;;;;21.93;16.80;;;1.40;99.90;;;;;;5034130;28;20799;-72
2023/01/27 06:55:26;;;;;;;23.73;18.17;;;1.30;99.90;;;;;;5033876;28;20486;-70
2023/01/27 06:57:51;;;;;;;24.20;19.30;;;1.50;99.90;;;;;;5034136;28;20901;-72
2023/01/27 07:00:18;;;;;;;25.43;18.47;;;1.40;99.90;;;;;;5034148;28;20401;-73
2023/01/27 07:02:43;;;;;;;24.57;19.57;;;1.10;99.90;;;;;;5033925;28;20179;-71
2023/01/27 07:05:10;;;;;;;24.90;18.40;;;1.10;99.90;;;;;;5034249;28;20424;-71
2023/01/27 07:07:36;;;;;;;29.90;21.10;;;1.00;99.90;;;;;;5034202;28;20181;-72
2023/01/27 07:10:02;;;;;;;26.90;19.00;;;1.00;99.90;;;;;;5042241;28;20427;-71
2023/01/27 07:12:28;;;;;;;25.67;18.53;;;1.20;99.90;;;;;;5035707;28;20478;-72
2023/01/27 07:14:53;;;;;;;24.47;17.83;;;1.20;99.90;;;;;;5053770;28;20444;-71
2023/01/27 07:17:19;;;;;;;24.27;18.47;;;0.90;99.90;;;;;;5053662;28;20459;-71
2023/01/27 07:19:44;;;;;;;19.93;16.07;;;0.90;99.90;;;;;;5053403;28;20163;-70
2023/01/27 07:22:10;;;;;;;24.47;18.40;;;0.90;99.90;;;;;;5053871;28;20186;-71
2023/01/27 07:24:36;;;;;;;20.90;17.13;;;1.10;99.90;;;;;;5053095;28;20204;-72
2023/01/27 07:27:01;;;;;;;26.33;17.67;;;1.10;99.90;;;;;;5053522;28;20235;-72
2023/01/27 07:29:27;;;;;;;29.37;19.27;;;1.20;99.90;;;;;;5053360;28;20192;-71
2023/01/27 07:31:52;;;;;;;23.63;18.23;;;1.40;99.90;;;;;;5035483;28;20601;-72
2023/01/27 07:34:18;;;;;;;23.23;17.40;;;1.40;99.90;;;;;;5053234;28;20201;-71
2023/01/27 07:36:43;;;;;;;22.67;16.47;;;1.40;99.90;;;;;;5053405;28;20189;-71
2023/01/27 07:39:09;;;;;;;21.63;16.23;;;1.70;99.90;;;;;;5052951;28;20167;-72
2023/01/27 07:41:34;;;;;;;23.30;16.90;;;1.60;99.90;;;;;;5053054;28;20206;-73
2023/01/27 07:44:00;;;;;;;23.27;17.57;;;1.40;99.90;;;;;;5053287;28;20168;-72
2023/01/27 07:46:25;;;;;;;23.63;17.00;;;1.00;99.90;;;;;;5053166;28;20174;-71
2023/01/27 07:48:51;;;;;;;22.83;16.77;;;1.20;99.90;;;;;;5053232;28;20177;-71
2023/01/27 07:51:17;;;;;;;26.20;17.90;;;1.40;99.90;;;;;;5053166;28;20668;-71
2023/01/27 07:53:42;;;;;;;21.77;15.73;;;1.50;99.90;;;;;;5035032;28;20174;-73
2023/01/27 07:56:10;;;;;;;21.20;16.50;;;1.60;99.90;;;;;;5034858;28;20221;-72
2023/01/27 07:58:37;;;;;;;19.77;15.47;;;1.70;99.90;;;;;;5053083;28;20199;-72
2023/01/27 08:01:08;;;;;;;20.27;15.43;;;1.70;99.90;;;;;;5052903;28;20816;-71
2023/01/27 08:03:34;;;;;;;19.93;16.17;;;1.50;99.90;;;;;;5035096;28;20401;-71
2023/01/27 08:06:05;;;;;;;20.20;14.97;;;1.20;99.90;;;;;;5053109;28;20408;-70
2023/01/27 08:08:30;;;;;;;17.63;12.80;;;1.20;99.90;;;;;;5053067;28;20409;-71
2023/01/27 08:11:06;;;;;;;18.67;14.40;;;1.10;99.90;;;;;;5050761;28;20474;-71
2023/01/27 08:13:33;;;;;;;16.03;12.27;;;1.10;99.90;;;;;;5052811;28;20161;-71
2023/01/27 08:16:00;;;;;;;17.47;13.03;;;1.10;99.90;;;;;;5052391;28;20436;-71
2023/01/27 08:18:27;;;;;;;19.47;13.13;;;1.00;99.90;;;;;;5052629;28;20413;-71
2023/01/27 08:20:54;;;;;;;18.30;12.90;;;1.00;99.90;;;;;;5052931;28;20411;-71
2023/01/27 08:23:21;;;;;;;17.33;12.73;;;1.10;99.90;;;;;;5052898;28;20806;-71
2023/01/27 08:25:51;;;;;;;17.97;13.83;;;1.30;99.90;;;;;;5052393;28;20546;-71
2023/01/27 08:28:17;;;;;;;19.00;13.70;;;1.30;99.90;;;;;;5053335;28;20451;-71
2023/01/27 08:30:42;;;;;;;17.47;13.67;;;1.40;99.90;;;;;;5053038;28;20875;-72
2023/01/27 08:33:08;;;;;;;16.63;12.43;;;1.30;99.90;;;;;;5044011;28;20468;-71
2023/01/27 08:35:35;;;;;;;17.23;12.80;;;1.10;99.90;;;;;;5032996;28;20194;-70
2023/01/27 08:38:01;;;;;;;18.47;13.37;;;1.20;99.90;;;;;;5032820;28;20238;-71
2023/01/27 08:40:26;;;;;;;19.70;14.87;;;1.10;99.90;;;;;;5044186;28;20468;-71
2023/01/27 08:42:52;;;;;;;19.10;14.13;;;1.10;99.90;;;;;;5042969;28;20207;-70
2023/01/27 08:45:18;;;;;;;16.13;12.53;;;1.00;99.90;;;;;;5032619;28;20195;-71
2023/01/27 08:47:43;;;;;;;14.00;11.70;;;1.10;99.90;;;;;;5032514;28;20187;-71
2023/01/27 08:50:09;;;;;;;17.30;13.20;;;1.20;99.90;;;;;;5032918;28;20171;-70
2023/01/27 08:52:35;;;;;;;16.17;13.07;;;1.20;99.90;;;;;;5032410;28;20218;-71
2023/01/27 08:55:00;;;;;;;18.17;14.33;;;1.30;99.90;;;;;;5033510;28;20452;-71
2023/01/27 08:57:26;;;;;;;20.83;14.63;;;1.40;99.90;;;;;;5036514;28;20174;-70
2023/01/27 08:59:52;;;;;;;19.43;13.37;;;1.40;99.90;;;;;;5036431;28;20694;-70
2023/01/27 09:02:19;;;;;;;18.10;12.73;;;1.40;99.90;;;;;;5036198;28;20180;-70
2023/01/27 09:04:44;;;;;;;18.67;13.47;;;1.30;99.90;;;;;;5036276;28;20653;-71
2023/01/27 09:07:10;;;;;;;19.03;13.33;;;1.20;99.90;;;;;;5036098;28;20406;-71
2023/01/27 09:09:35;;;;;;;15.90;11.97;;;1.30;99.90;;;;;;5039945;28;20185;-70
2023/01/27 09:12:01;;;;;;;22.37;15.50;;;1.30;99.90;;;;;;5055279;28;20186;-71
2023/01/27 09:14:26;;;;;;;18.63;14.63;;;1.30;99.90;;;;;;5055891;28;20186;-72
2023/01/27 09:16:52;;;;;;;17.80;14.20;;;1.40;99.90;;;;;;5056026;28;20163;-71
2023/01/27 09:19:17;;;;;;;20.53;17.67;;;1.40;99.90;;;;;;5056085;28;20166;-71
2023/01/27 09:21:43;;;;;;;22.87;15.10;;;1.30;99.90;;;;;;5037890;28;20304;-71
2023/01/27 09:24:10;;;;;;;19.50;15.37;;;1.50;99.90;;;;;;5038091;28;20171;-72
2023/01/27 09:26:35;;;;;;;19.20;12.40;;;1.50;99.90;;;;;;5055687;28;20158;-71
2023/01/27 09:29:01;;;;;;;19.87;15.17;;;1.30;99.90;;;;;;5056204;28;20507;-71
2023/01/27 09:31:26;;;;;;;19.97;14.63;;;1.30;99.90;;;;;;5056046;28;20197;-71
2023/01/27 09:33:52;;;;;;;20.23;14.47;;;1.30;99.90;;;;;;5056072;28;20171;-71
2023/01/27 09:36:20;;;;;;;17.23;13.80;;;1.30;99.90;;;;;;5037564;28;20198;-72
2023/01/27 09:39:00;;;;;;;21.23;14.67;;;1.30;99.90;;;;;;5055854;28;20243;-72
2023/01/27 09:41:50;;;;;;;20.33;15.60;;;1.50;99.90;;;;;;5037110;28;20994;-71
2023/01/27 09:44:46;;;;;;;22.23;16.20;;;1.70;99.90;;;;;;5056364;28;20390;-71
2023/01/27 09:47:39;;;;;;;22.20;15.80;;;1.70;99.90;;;;;;5055673;28;20412;-71
2023/01/27 09:50:23;;;;;;;22.47;15.60;;;1.60;99.90;;;;;;5056738;28;20891;-71
2023/01/27 09:53:11;;;;;;;25.10;17.53;;;1.40;99.90;;;;;;5055621;28;20421;-71
2023/01/27 09:55:51;;;;;;;23.87;15.50;;;1.20;99.90;;;;;;5054639;28;20433;-70
2023/01/27 09:59:07;;;;;;;24.97;15.63;;;1.40;99.90;;;;;;5037346;28;20424;-70
2023/01/27 10:02:01;;;;;;;22.40;15.27;;;1.40;99.90;;;;;;4974221;28;20440;-71
2023/01/27 10:04:44;;;;;;;27.43;15.60;;;1.30;99.90;;;;;;4974080;28;20409;-71
2023/01/27 10:07:24;;;;;;;27.00;16.33;;;1.30;99.90;;;;;;5035404;28;20510;-71
2023/01/27 10:10:31;;;;;;;26.43;16.90;;;1.50;99.90;;;;;;5053275;28;20413;-71
2023/01/27 10:13:16;;;;;;;23.20;15.60;;;1.50;99.90;;;;;;5043832;28;20440;-71
2023/01/27 10:16:13;;;;;;;28.83;16.70;;;1.40;99.90;;;;;;5054918;28;20796;-71
2023/01/27 10:19:03;;;;;;;26.07;16.83;;;1.50;99.90;;;;;;5055074;28;20397;-71
2023/01/27 10:22:25;;;;;;;21.30;15.07;;;1.60;99.90;;;;;;5054694;28;20504;-71
2023/01/27 10:25:00;;;;;;;23.47;15.90;;;1.50;99.90;;;;;;4973426;28;20511;-71
2023/01/27 10:27:30;;;;;;;19.37;13.17;;;1.40;99.90;;;;;;5042836;28;20459;-72
2023/01/27 10:30:22;;;;;;;20.87;14.30;;;1.60;99.90;;;;;;5054626;28;20794;-71
2023/01/27 10:33:09;;;;;;;18.93;12.57;;;1.80;99.90;;;;;;5040470;28;20471;-70
2023/01/27 10:35:40;;;;;;;16.90;12.10;;;2.20;99.90;;;;;;5054837;28;20435;-71
2023/01/27 10:38:27;;;;;;;17.30;11.47;;;2.20;99.90;;;;;;5054904;28;20390;-70
2023/01/27 10:41:10;;;;;;;17.20;12.20;;;2.20;99.90;;;;;;5054642;28;20919;-71
2023/01/27 10:43:48;;;;;;;17.07;12.13;;;2.30;99.90;;;;;;5065230;22;20513;-70
2023/01/27 10:47:03;;;;;;;20.03;12.80;;;1.90;99.90;;;;;;5039113;28;20475;-69
2023/01/27 10:49:34;;;;;;;18.93;12.10;;;1.70;99.90;;;;;;5034642;28;20912;-70
2023/01/27 10:52:09;;;;;;;19.30;13.13;;;1.70;99.90;;;;;;5035600;28;20375;-70
2023/01/27 10:54:52;;;;;;;15.80;11.33;;;1.90;99.90;;;;;;5016634;28;20464;-70
2023/01/27 10:57:28;;;;;;;18.40;11.43;;;2.00;99.90;;;;;;5016391;28;20398;-70
2023/01/27 11:00:04;;;;;;;18.57;12.63;;;1.70;99.90;;;;;;5033926;28;20921;-70
2023/01/27 11:02:44;;;;;;;21.00;13.73;;;1.70;99.90;;;;;;5033759;28;20449;-69
2023/01/27 11:05:29;;;;;;;16.80;11.77;;;1.80;99.90;;;;;;5034138;28;20383;-69
2023/01/27 11:08:05;;;;;;;17.33;13.53;;;1.90;99.90;;;;;;5033705;28;20412;-70
2023/01/27 11:10:36;;;;;;;17.27;11.87;;;1.80;99.90;;;;;;5023895;28;20425;-69
2023/01/27 11:13:04;;;;;;;19.20;13.13;;;2.10;99.90;;;;;;5053604;28;20508;-69
2023/01/27 11:15:32;;;;;;;16.40;11.63;;;2.40;99.90;;;;;;5053898;28;20901;-70
2023/01/27 11:18:22;;;;;;;16.00;10.90;;;2.70;99.90;;;;;;5053401;28;20409;-70
2023/01/27 11:21:11;;;;;;;15.90;11.20;;;2.50;99.90;;;;;;5053740;28;20409;-69
2023/01/27 11:23:44;;;;;;;18.73;12.20;;;2.10;99.90;;;;;;5053356;28;20864;-70
2023/01/27 11:26:35;;;;;;;17.87;12.70;;;2.00;99.90;;;;;;5035085;28;20868;-70
2023/01/27 11:29:42;;;;;;;18.43;12.13;;;2.10;99.90;;;;;;5053332;28;20394;-69
2023/01/27 11:32:34;;;;;;;19.53;13.00;;;1.80;99.90;;;;;;5039809;28;20436;-68
2023/01/27 11:35:10;;;;;;;18.37;12.37;;;1.90;99.90;;;;;;5053753;28;20469;-69
2023/01/27 11:37:41;;;;;;;17.13;12.27;;;1.90;99.90;;;;;;5053052;28;20473;-70
2023/01/27 11:40:32;;;;;;;20.10;13.60;;;2.10;99.90;;;;;;5052269;28;20492;-70
2023/01/27 11:42:58;;;;;;;15.37;9.80;;;1.80;99.90;;;;;;5034949;28;20941;-69
2023/01/27 11:45:25;;;;;;;15.53;10.07;;;1.90;99.90;;;;;;5052966;28;20414;-69
2023/01/27 11:47:57;;;;;;;12.30;9.40;;;2.10;99.90;;;;;;5035054;28;20428;-69
2023/01/27 11:50:28;;;;;;;16.77;10.00;;;2.40;99.90;;;;;;5053192;28;20451;-70
2023/01/27 11:53:17;;;;;;;15.17;10.57;;;2.50;99.90;;;;;;5052922;28;20927;-70
2023/01/27 11:55:49;;;;;;;18.33;12.30;;;2.60;99.90;;;;;;5052055;28;20453;-70
2023/01/27 11:58:44;;;;;;;14.07;10.53;;;2.50;99.90;;;;;;5052940;28;20382;-70
2023/01/27 12:01:18;;;;;;;14.40;11.20;;;2.40;99.90;;;;;;5034871;28;20714;-70
2023/01/27 12:03:57;;;;;;;12.93;10.50;;;2.30;99.90;;;;;;5052982;28;20460;-69
2023/01/27 12:06:26;;;;;;;15.47;11.20;;;2.00;99.90;;;;;;5053085;28;20762;-70
2023/01/27 12:08:51;;;;;;;14.80;10.73;;;2.20;99.90;;;;;;5052790;28;20774;-70
2023/01/27 12:11:18;;;;;;;18.00;11.30;;;2.20;99.90;;;;;;5035884;28;20417;-69
2023/01/27 12:13:55;;;;;;;13.83;10.73;;;2.30;99.90;;;;;;5033174;28;20355;-70
2023/01/27 12:16:26;;;;;;;16.97;12.47;;;2.20;99.90;;;;;;5033959;28;20991;-69
2023/01/27 12:19:19;;;;;;;16.60;12.13;;;2.10;99.90;;;;;;5033665;28;20375;-70
2023/01/27 12:21:49;;;;;;;15.10;10.97;;;2.50;99.90;;;;;;5015546;28;20952;-69
2023/01/27 12:24:31;;;;;;;20.50;12.20;;;2.60;99.90;;;;;;5014710;28;20935;-70
2023/01/27 12:26:57;;;;;;;15.07;11.60;;;2.50;99.90;;;;;;5032328;28;20398;-69
2023/01/27 12:29:41;;;;;;;16.10;10.33;;;2.30;99.90;;;;;;5033154;28;20412;-70
2023/01/27 12:32:22;;;;;;;21.10;12.07;;;2.10;99.90;;;;;;5037268;28;20434;-69
2023/01/27 12:34:55;;;;;;;16.77;11.50;;;2.30;99.90;;;;;;5037686;28;20456;-70
2023/01/27 12:37:35;;;;;;;17.67;12.40;;;2.40;99.90;;;;;;5037554;28;20391;-70
2023/01/27 12:40:06;;;;;;;17.80;13.10;;;2.60;99.90;;;;;;5040985;28;20721;-70
2023/01/27 12:42:47;;;;;;;18.20;12.43;;;2.40;99.90;;;;;;5056449;28;20830;-70
2023/01/27 12:45:37;;;;;;;16.00;12.53;;;2.30;99.90;;;;;;5040290;28;20399;-71
2023/01/27 12:48:08;;;;;;;20.67;14.10;;;2.40;99.90;;;;;;5016994;28;20912;-70
2023/01/27 12:50:55;;;;;;;20.80;13.70;;;2.60;99.90;;;;;;5036647;28;20413;-71
2023/01/27 12:53:22;;;;;;;19.90;13.40;;;2.40;99.90;;;;;;5037278;28;20475;-70
2023/01/27 12:55:56;;;;;;;20.80;13.10;;;2.20;99.90;;;;;;5036171;28;20959;-70
2023/01/27 12:58:31;;;;;;;19.90;14.40;;;2.40;99.90;;;;;;5036477;28;20406;-70
2023/01/27 13:00:59;;;;;;;23.33;14.70;;;2.30;99.90;;;;;;5036767;28;20505;-70
2023/01/27 13:03:26;;;;;;;21.30;14.17;;;2.30;99.90;;;;;;5018433;28;20429;-70
2023/01/27 13:05:54;;;;;;;23.83;15.87;;;2.30;99.90;;;;;;5036162;28;20405;-69
2023/01/27 13:08:21;;;;;;;19.87;13.03;;;2.30;99.90;;;;;;5018464;28;20417;-70
2023/01/27 13:10:55;;;;;;;20.30;14.60;;;2.50;99.90;;;;;;5027356;28;20523;-70
2023/01/27 13:13:26;;;;;;;21.63;14.63;;;2.80;99.90;;;;;;5056219;28;20419;-70
2023/01/27 13:15:55;;;;;;;19.87;14.07;;;2.80;99.90;;;;;;5039006;28;20455;-70
2023/01/27 13:18:21;;;;;;;19.60;13.40;;;2.40;99.90;;;;;;5042907;28;20844;-69
2023/01/27 13:21:02;;;;;;;19.23;13.47;;;2.40;99.90;;;;;;5060640;28;20396;-70
2023/01/27 13:23:33;;;;;;;18.60;13.73;;;2.70;99.90;;;;;;5058921;28;20425;-69
2023/01/27 13:26:08;;;;;;;22.77;14.80;;;2.60;99.90;;;;;;5037605;28;20441;-70